sensor_id;sensor_type;location;lat;lon;timestamp;pressure;altitude;pressure_sealevel;temperature;humidity
49122;BME280;35529;44.342;25.944;2022-07-12T00:02:14;100768.00;;;19.00;76.36
49122;BME280;35529;44.342;25.944;2022-07-12T00:04:40;100773.97;;;19.02;72.89
49122;BME280;35529;44.342;25.944;2022-07-12T00:07:06;100773.97;;;19.02;71.99
49122;BME280;35529;44.342;25.944;2022-07-12T00:09:33;100770.69;;;19.00;72.70
49122;BME280;35529;44.342;25.944;2022-07-12T00:11:59;100776.34;;;18.99;74.62
49122;BME280;35529;44.342;25.944;2022-07-12T00:14:25;100769.66;;;19.01;73.11
49122;BME280;35529;44.342;25.944;2022-07-12T00:16:54;100762.72;;;19.05;74.29
49122;BME280;35529;44.342;25.944;2022-07-12T00:19:20;100765.97;;;19.07;73.80
49122;BME280;35529;44.342;25.944;2022-07-12T00:21:46;100762.22;;;19.08;72.04
49122;BME280;35529;44.342;25.944;2022-07-12T00:24:12;100760.91;;;19.11;70.52
49122;BME280;35529;44.342;25.944;2022-07-12T00:26:38;100762.03;;;19.15;69.65
49122;BME280;35529;44.342;25.944;2022-07-12T00:29:04;100772.06;;;19.20;68.70
49122;BME280;35529;44.342;25.944;2022-07-12T00:31:31;100759.00;;;19.29;71.30
49122;BME280;35529;44.342;25.944;2022-07-12T00:33:57;100764.47;;;19.34;69.83
49122;BME280;35529;44.342;25.944;2022-07-12T00:36:23;100758.38;;;19.43;73.03
49122;BME280;35529;44.342;25.944;2022-07-12T00:38:49;100758.22;;;19.50;74.20
49122;BME280;35529;44.342;25.944;2022-07-12T00:41:16;100764.44;;;19.51;73.90
49122;BME280;35529;44.342;25.944;2022-07-12T00:43:42;100763.66;;;19.55;77.67
49122;BME280;35529;44.342;25.944;2022-07-12T00:46:08;100774.75;;;19.59;78.78
49122;BME280;35529;44.342;25.944;2022-07-12T00:48:37;100770.50;;;19.63;79.98
49122;BME280;35529;44.342;25.944;2022-07-12T00:51:05;100775.38;;;19.66;81.17
49122;BME280;35529;44.342;25.944;2022-07-12T00:53:34;100772.47;;;19.68;81.89
49122;BME280;35529;44.342;25.944;2022-07-12T00:56:02;100777.16;;;19.77;82.16
49122;BME280;35529;44.342;25.944;2022-07-12T00:58:30;100781.56;;;19.84;82.80
49122;BME280;35529;44.342;25.944;2022-07-12T01:00:57;100773.09;;;19.97;82.63
49122;BME280;35529;44.342;25.944;2022-07-12T01:03:24;100779.72;;;20.12;81.52
49122;BME280;35529;44.342;25.944;2022-07-12T01:05:51;100795.69;;;20.18;80.55
49122;BME280;35529;44.342;25.944;2022-07-12T01:08:17;100792.34;;;20.06;82.47
49122;BME280;35529;44.342;25.944;2022-07-12T01:10:43;100787.22;;;20.04;82.41
49122;BME280;35529;44.342;25.944;2022-07-12T01:13:10;100794.78;;;20.07;81.92
49122;BME280;35529;44.342;25.944;2022-07-12T01:15:37;100801.59;;;20.15;79.48
49122;BME280;35529;44.342;25.944;2022-07-12T01:18:03;100802.28;;;20.27;78.92
49122;BME280;35529;44.342;25.944;2022-07-12T01:20:30;100799.59;;;20.27;79.90
49122;BME280;35529;44.342;25.944;2022-07-12T01:22:57;100795.44;;;20.20;81.85
49122;BME280;35529;44.342;25.944;2022-07-12T01:25:24;100793.16;;;20.06;81.67
49122;BME280;35529;44.342;25.944;2022-07-12T01:27:50;100782.47;;;19.89;81.63
49122;BME280;35529;44.342;25.944;2022-07-12T01:30:17;100777.81;;;19.85;83.46
49122;BME280;35529;44.342;25.944;2022-07-12T01:32:43;100773.63;;;19.77;84.73
49122;BME280;35529;44.342;25.944;2022-07-12T01:35:09;100781.59;;;19.67;82.46
49122;BME280;35529;44.342;25.944;2022-07-12T01:37:36;100779.72;;;19.67;84.63
49122;BME280;35529;44.342;25.944;2022-07-12T01:40:03;100787.19;;;19.60;82.78
49122;BME280;35529;44.342;25.944;2022-07-12T01:42:29;100789.22;;;19.53;84.93
49122;BME280;35529;44.342;25.944;2022-07-12T01:44:56;100793.47;;;19.49;86.53
49122;BME280;35529;44.342;25.944;2022-07-12T01:47:27;100784.00;;;19.46;86.68
49122;BME280;35529;44.342;25.944;2022-07-12T01:49:53;100791.78;;;19.42;88.58
49122;BME280;35529;44.342;25.944;2022-07-12T01:52:19;100785.81;;;19.40;88.67
49122;BME280;35529;44.342;25.944;2022-07-12T01:54:46;100789.41;;;19.46;88.75
49122;BME280;35529;44.342;25.944;2022-07-12T01:57:12;100786.47;;;19.48;90.07
49122;BME280;35529;44.342;25.944;2022-07-12T01:59:38;100790.22;;;19.47;88.72
49122;BME280;35529;44.342;25.944;2022-07-12T02:02:05;100781.50;;;19.39;87.59
49122;BME280;35529;44.342;25.944;2022-07-12T02:04:31;100788.16;;;19.15;86.33
49122;BME280;35529;44.342;25.944;2022-07-12T02:07:00;100789.28;;;19.02;89.14
49122;BME280;35529;44.342;25.944;2022-07-12T02:09:26;100794.16;;;18.88;91.27
49122;BME280;35529;44.342;25.944;2022-07-12T02:11:53;100795.38;;;18.80;91.70
49122;BME280;35529;44.342;25.944;2022-07-12T02:14:21;100798.31;;;18.79;93.06
49122;BME280;35529;44.342;25.944;2022-07-12T02:16:55;100799.34;;;18.77;92.12
49122;BME280;35529;44.342;25.944;2022-07-12T02:19:26;100804.75;;;18.61;88.00
49122;BME280;35529;44.342;25.944;2022-07-12T02:21:52;100811.06;;;18.54;91.21
49122;BME280;35529;44.342;25.944;2022-07-12T02:24:18;100803.66;;;18.45;90.81
49122;BME280;35529;44.342;25.944;2022-07-12T02:26:47;100794.03;;;18.49;88.22
49122;BME280;35529;44.342;25.944;2022-07-12T02:29:13;100810.41;;;18.47;84.77
49122;BME280;35529;44.342;25.944;2022-07-12T02:31:40;100811.56;;;18.51;89.18
49122;BME280;35529;44.342;25.944;2022-07-12T02:34:06;100812.84;;;18.49;90.32
49122;BME280;35529;44.342;25.944;2022-07-12T02:36:32;100814.81;;;18.53;92.21
49122;BME280;35529;44.342;25.944;2022-07-12T02:39:01;100822.94;;;18.41;91.75
49122;BME280;35529;44.342;25.944;2022-07-12T02:41:30;100819.13;;;18.25;88.58
49122;BME280;35529;44.342;25.944;2022-07-12T02:44:01;100822.34;;;18.11;88.62
49122;BME280;35529;44.342;25.944;2022-07-12T02:46:28;100821.44;;;17.93;82.69
49122;BME280;35529;44.342;25.944;2022-07-12T02:48:56;100828.06;;;17.90;85.23
49122;BME280;35529;44.342;25.944;2022-07-12T02:51:24;100828.47;;;17.70;82.77
49122;BME280;35529;44.342;25.944;2022-07-12T02:53:53;100823.56;;;17.67;87.68
49122;BME280;35529;44.342;25.944;2022-07-12T02:56:19;100830.59;;;17.56;84.25
49122;BME280;35529;44.342;25.944;2022-07-12T02:58:51;100826.84;;;17.46;79.54
49122;BME280;35529;44.342;25.944;2022-07-12T03:01:20;100836.53;;;17.35;75.15
49122;BME280;35529;44.342;25.944;2022-07-12T03:03:46;100830.94;;;17.36;82.25
49122;BME280;35529;44.342;25.944;2022-07-12T03:06:12;100838.38;;;17.22;76.89
49122;BME280;35529;44.342;25.944;2022-07-12T03:08:39;100834.38;;;17.13;76.31
49122;BME280;35529;44.342;25.944;2022-07-12T03:11:05;100836.88;;;17.15;80.56
49122;BME280;35529;44.342;25.944;2022-07-12T03:13:31;100842.81;;;17.29;89.93
49122;BME280;35529;44.342;25.944;2022-07-12T03:15:59;100842.59;;;17.42;94.43
49122;BME280;35529;44.342;25.944;2022-07-12T03:18:25;100850.31;;;17.50;95.47
49122;BME280;35529;44.342;25.944;2022-07-12T03:20:52;100843.41;;;17.54;95.49
49122;BME280;35529;44.342;25.944;2022-07-12T03:23:18;100849.63;;;17.55;96.07
49122;BME280;35529;44.342;25.944;2022-07-12T03:25:44;100847.84;;;17.49;97.28
49122;BME280;35529;44.342;25.944;2022-07-12T03:28:11;100854.75;;;17.45;97.81
49122;BME280;35529;44.342;25.944;2022-07-12T03:30:37;100860.34;;;17.43;98.27
49122;BME280;35529;44.342;25.944;2022-07-12T03:33:03;100856.72;;;17.37;97.92
49122;BME280;35529;44.342;25.944;2022-07-12T03:35:29;100852.97;;;17.38;99.32
49122;BME280;35529;44.342;25.944;2022-07-12T03:37:55;100870.34;;;17.36;97.66
49122;BME280;35529;44.342;25.944;2022-07-12T03:40:21;100857.66;;;17.31;98.36
49122;BME280;35529;44.342;25.944;2022-07-12T03:42:48;100868.50;;;17.24;91.57
49122;BME280;35529;44.342;25.944;2022-07-12T03:45:14;100856.00;;;17.30;95.51
49122;BME280;35529;44.342;25.944;2022-07-12T03:47:41;100854.28;;;17.24;94.83
49122;BME280;35529;44.342;25.944;2022-07-12T03:50:08;100854.38;;;17.17;89.83
49122;BME280;35529;44.342;25.944;2022-07-12T03:52:36;100851.31;;;17.14;90.84
49122;BME280;35529;44.342;25.944;2022-07-12T03:55:02;100848.41;;;17.15;92.88
49122;BME280;35529;44.342;25.944;2022-07-12T03:57:31;100857.88;;;17.18;90.25
49122;BME280;35529;44.342;25.944;2022-07-12T03:59:57;100864.84;;;17.07;80.80
49122;BME280;35529;44.342;25.944;2022-07-12T04:02:23;100866.50;;;17.08;85.33
49122;BME280;35529;44.342;25.944;2022-07-12T04:04:52;100866.94;;;17.05;83.08
49122;BME280;35529;44.342;25.944;2022-07-12T04:07:18;100870.56;;;17.11;87.15
49122;BME280;35529;44.342;25.944;2022-07-12T04:09:44;100870.34;;;17.12;87.99
49122;BME280;35529;44.342;25.944;2022-07-12T04:12:10;100869.41;;;17.18;88.41
49122;BME280;35529;44.342;25.944;2022-07-12T04:14:37;100878.53;;;17.29;92.02
49122;BME280;35529;44.342;25.944;2022-07-12T04:17:03;100863.72;;;17.38;91.16
49122;BME280;35529;44.342;25.944;2022-07-12T04:19:32;100882.72;;;17.25;81.84
49122;BME280;35529;44.342;25.944;2022-07-12T04:21:58;100880.50;;;17.22;79.84
49122;BME280;35529;44.342;25.944;2022-07-12T04:24:27;100885.91;;;17.34;82.34
49122;BME280;35529;44.342;25.944;2022-07-12T04:26:53;100879.94;;;17.43;81.68
49122;BME280;35529;44.342;25.944;2022-07-12T04:29:20;100890.22;;;17.70;88.99
49122;BME280;35529;44.342;25.944;2022-07-12T04:31:46;100885.09;;;17.81;82.54
49122;BME280;35529;44.342;25.944;2022-07-12T04:34:12;100895.13;;;17.97;81.53
49122;BME280;35529;44.342;25.944;2022-07-12T04:36:45;100884.50;;;17.90;73.84
49122;BME280;35529;44.342;25.944;2022-07-12T04:39:12;100893.25;;;18.09;82.55
49122;BME280;35529;44.342;25.944;2022-07-12T04:41:38;100889.63;;;18.16;73.68
49122;BME280;35529;44.342;25.944;2022-07-12T04:44:08;100896.34;;;18.42;82.25
49122;BME280;35529;44.342;25.944;2022-07-12T04:46:35;100888.94;;;18.49;71.04
49122;BME280;35529;44.342;25.944;2022-07-12T04:49:03;100893.41;;;18.72;72.81
49122;BME280;35529;44.342;25.944;2022-07-12T04:51:32;100899.06;;;19.00;68.85
49122;BME280;35529;44.342;25.944;2022-07-12T04:54:00;100887.75;;;19.15;67.61
49122;BME280;35529;44.342;25.944;2022-07-12T04:56:29;100903.31;;;19.30;73.92
49122;BME280;35529;44.342;25.944;2022-07-12T04:58:55;100898.59;;;19.54;72.00
49122;BME280;35529;44.342;25.944;2022-07-12T05:01:24;100895.38;;;19.74;67.85
49122;BME280;35529;44.342;25.944;2022-07-12T05:03:51;100900.69;;;19.86;69.56
49122;BME280;35529;44.342;25.944;2022-07-12T05:06:17;100906.09;;;19.86;63.30
49122;BME280;35529;44.342;25.944;2022-07-12T05:08:43;100903.91;;;19.83;63.84
49122;BME280;35529;44.342;25.944;2022-07-12T05:11:14;100906.50;;;19.95;69.28
49122;BME280;35529;44.342;25.944;2022-07-12T05:13:42;100905.72;;;19.99;63.73
49122;BME280;35529;44.342;25.944;2022-07-12T05:16:08;100910.63;;;20.02;64.56
49122;BME280;35529;44.342;25.944;2022-07-12T05:18:35;100921.63;;;20.18;64.32
49122;BME280;35529;44.342;25.944;2022-07-12T05:21:01;100914.03;;;20.37;65.43
49122;BME280;35529;44.342;25.944;2022-07-12T05:23:27;100915.03;;;20.53;66.26
49122;BME280;35529;44.342;25.944;2022-07-12T05:25:56;100915.31;;;20.79;63.48
49122;BME280;35529;44.342;25.944;2022-07-12T05:28:22;100918.69;;;20.91;59.50
49122;BME280;35529;44.342;25.944;2022-07-12T05:30:50;100917.28;;;20.83;62.65
49122;BME280;35529;44.342;25.944;2022-07-12T05:33:16;100917.13;;;20.95;64.70
49122;BME280;35529;44.342;25.944;2022-07-12T05:35:42;100918.31;;;21.09;59.36
49122;BME280;35529;44.342;25.944;2022-07-12T05:38:09;100920.44;;;21.35;61.30
49122;BME280;35529;44.342;25.944;2022-07-12T05:40:37;100927.75;;;21.72;63.75
49122;BME280;35529;44.342;25.944;2022-07-12T05:43:06;100921.09;;;21.85;66.17
49122;BME280;35529;44.342;25.944;2022-07-12T05:45:32;100915.78;;;22.05;67.22
49122;BME280;35529;44.342;25.944;2022-07-12T05:47:58;100916.56;;;22.01;53.01
49122;BME280;35529;44.342;25.944;2022-07-12T05:50:24;100927.03;;;21.87;51.72
49122;BME280;35529;44.342;25.944;2022-07-12T05:52:50;100928.44;;;21.95;64.63
49122;BME280;35529;44.342;25.944;2022-07-12T05:55:36;100925.56;;;22.12;67.52
49122;BME280;35529;44.342;25.944;2022-07-12T05:58:02;100924.16;;;21.99;53.75
49122;BME280;35529;44.342;25.944;2022-07-12T06:00:29;100926.09;;;22.14;67.36
49122;BME280;35529;44.342;25.944;2022-07-12T06:02:55;100925.56;;;22.17;54.23
49122;BME280;35529;44.342;25.944;2022-07-12T06:05:21;100927.25;;;22.28;54.15
49122;BME280;35529;44.342;25.944;2022-07-12T06:07:48;100929.13;;;22.27;53.17
49122;BME280;35529;44.342;25.944;2022-07-12T06:10:19;100928.69;;;22.41;60.20
49122;BME280;35529;44.342;25.944;2022-07-12T06:12:45;100929.50;;;22.41;54.95
49122;BME280;35529;44.342;25.944;2022-07-12T06:15:11;100925.66;;;22.32;51.10
49122;BME280;35529;44.342;25.944;2022-07-12T06:17:40;100921.69;;;22.45;54.33
49122;BME280;35529;44.342;25.944;2022-07-12T06:20:06;100925.47;;;22.54;58.50
49122;BME280;35529;44.342;25.944;2022-07-12T06:22:32;100919.81;;;22.61;64.03
49122;BME280;35529;44.342;25.944;2022-07-12T06:25:01;100924.41;;;22.55;62.27
49122;BME280;35529;44.342;25.944;2022-07-12T06:27:27;100926.81;;;22.41;60.43
49122;BME280;35529;44.342;25.944;2022-07-12T06:29:56;100924.22;;;22.19;55.65
49122;BME280;35529;44.342;25.944;2022-07-12T06:32:22;100925.78;;;22.00;54.54
49122;BME280;35529;44.342;25.944;2022-07-12T06:34:48;100930.47;;;22.20;68.50
49122;BME280;35529;44.342;25.944;2022-07-12T06:37:16;100929.41;;;22.26;62.13
49122;BME280;35529;44.342;25.944;2022-07-12T06:39:45;100930.56;;;22.35;67.65
49122;BME280;35529;44.342;25.944;2022-07-12T06:42:16;100934.16;;;22.03;57.59
49122;BME280;35529;44.342;25.944;2022-07-12T06:44:42;100929.44;;;21.83;64.06
49122;BME280;35529;44.342;25.944;2022-07-12T06:47:08;100946.00;;;21.92;65.50
49122;BME280;35529;44.342;25.944;2022-07-12T06:49:37;100939.38;;;22.15;62.24
49122;BME280;35529;44.342;25.944;2022-07-12T06:52:03;100943.69;;;22.16;52.48
49122;BME280;35529;44.342;25.944;2022-07-12T06:54:33;100943.22;;;22.30;63.99
49122;BME280;35529;44.342;25.944;2022-07-12T06:56:59;100937.88;;;22.35;63.85
49122;BME280;35529;44.342;25.944;2022-07-12T06:59:25;100946.88;;;22.61;61.18
49122;BME280;35529;44.342;25.944;2022-07-12T07:01:51;100939.09;;;22.90;60.13
49122;BME280;35529;44.342;25.944;2022-07-12T07:04:18;100943.78;;;23.26;53.19
49122;BME280;35529;44.342;25.944;2022-07-12T07:06:46;100947.28;;;23.57;58.03
49122;BME280;35529;44.342;25.944;2022-07-12T07:09:12;100937.47;;;24.03;61.79
49122;BME280;35529;44.342;25.944;2022-07-12T07:11:43;100943.53;;;24.50;60.43
49122;BME280;35529;44.342;25.944;2022-07-12T07:14:09;100946.50;;;24.58;45.88
49122;BME280;35529;44.342;25.944;2022-07-12T07:16:37;100939.91;;;24.04;54.20
49122;BME280;35529;44.342;25.944;2022-07-12T07:19:06;100935.06;;;23.91;48.53
49122;BME280;35529;44.342;25.944;2022-07-12T07:21:35;100941.03;;;23.88;56.47
49122;BME280;35529;44.342;25.944;2022-07-12T07:24:01;100944.81;;;23.87;61.38
49122;BME280;35529;44.342;25.944;2022-07-12T07:26:30;100947.28;;;23.93;68.30
49122;BME280;35529;44.342;25.944;2022-07-12T07:28:58;100951.88;;;23.83;66.46
49122;BME280;35529;44.342;25.944;2022-07-12T07:31:43;100943.22;;;23.70;65.45
49122;BME280;35529;44.342;25.944;2022-07-12T07:34:10;100945.66;;;23.72;63.37
49122;BME280;35529;44.342;25.944;2022-07-12T07:36:39;100943.25;;;23.50;65.01
49122;BME280;35529;44.342;25.944;2022-07-12T07:39:05;100943.25;;;23.39;65.39
49122;BME280;35529;44.342;25.944;2022-07-12T07:41:34;100942.97;;;23.41;66.59
49122;BME280;35529;44.342;25.944;2022-07-12T07:44:02;100941.38;;;23.30;53.17
49122;BME280;35529;44.342;25.944;2022-07-12T07:46:31;100938.63;;;23.45;59.04
49122;BME280;35529;44.342;25.944;2022-07-12T07:48:57;100940.50;;;23.70;61.52
49122;BME280;35529;44.342;25.944;2022-07-12T07:51:25;100942.41;;;23.90;59.36
49122;BME280;35529;44.342;25.944;2022-07-12T07:53:54;100938.03;;;24.05;58.12
49122;BME280;35529;44.342;25.944;2022-07-12T07:56:21;100945.56;;;24.29;59.64
49122;BME280;35529;44.342;25.944;2022-07-12T07:58:49;100940.91;;;24.39;62.13
49122;BME280;35529;44.342;25.944;2022-07-12T08:01:20;100942.50;;;24.40;61.88
49122;BME280;35529;44.342;25.944;2022-07-12T08:04:06;100955.00;;;24.36;63.77
49122;BME280;35529;44.342;25.944;2022-07-12T08:06:37;100950.16;;;24.33;65.66
49122;BME280;35529;44.342;25.944;2022-07-12T08:09:03;100942.50;;;24.40;63.40
49122;BME280;35529;44.342;25.944;2022-07-12T08:11:32;100939.44;;;24.57;62.20
49122;BME280;35529;44.342;25.944;2022-07-12T08:13:58;100943.69;;;24.79;62.15
49122;BME280;35529;44.342;25.944;2022-07-12T08:16:27;100939.84;;;24.90;59.32
49122;BME280;35529;44.342;25.944;2022-07-12T08:18:53;100942.25;;;24.97;61.56
49122;BME280;35529;44.342;25.944;2022-07-12T08:21:19;100938.41;;;24.98;62.90
49122;BME280;35529;44.342;25.944;2022-07-12T08:23:45;100939.81;;;24.96;60.67
49122;BME280;35529;44.342;25.944;2022-07-12T08:26:14;100942.56;;;24.90;59.56
49122;BME280;35529;44.342;25.944;2022-07-12T08:28:40;100936.88;;;24.87;58.16
49122;BME280;35529;44.342;25.944;2022-07-12T08:31:09;100936.59;;;24.83;52.35
49122;BME280;35529;44.342;25.944;2022-07-12T08:33:35;100940.94;;;24.89;56.68
49122;BME280;35529;44.342;25.944;2022-07-12T08:36:04;100939.25;;;24.93;59.24
49122;BME280;35529;44.342;25.944;2022-07-12T08:38:30;100942.47;;;25.01;54.38
49122;BME280;35529;44.342;25.944;2022-07-12T08:40:59;100932.34;;;25.12;54.52
49122;BME280;35529;44.342;25.944;2022-07-12T08:43:25;100930.69;;;25.16;53.51
49122;BME280;35529;44.342;25.944;2022-07-12T08:45:55;100921.44;;;25.17;50.07
49122;BME280;35529;44.342;25.944;2022-07-12T08:48:23;100921.44;;;25.17;47.22
49122;BME280;35529;44.342;25.944;2022-07-12T08:51:02;100916.97;;;25.31;56.18
49122;BME280;35529;44.342;25.944;2022-07-12T08:53:29;100917.97;;;25.46;58.60
49122;BME280;35529;44.342;25.944;2022-07-12T08:55:59;100921.34;;;25.62;53.56
49122;BME280;35529;44.342;25.944;2022-07-12T08:58:25;100917.59;;;25.82;57.56
49122;BME280;35529;44.342;25.944;2022-07-12T09:00:51;100912.31;;;25.90;49.82
49122;BME280;35529;44.342;25.944;2022-07-12T09:03:18;100908.41;;;26.02;52.65
49122;BME280;35529;44.342;25.944;2022-07-12T09:05:49;100909.59;;;25.90;39.63
49122;BME280;35529;44.342;25.944;2022-07-12T09:08:17;100904.19;;;25.61;41.02
49122;BME280;35529;44.342;25.944;2022-07-12T09:13:19;100900.69;;;25.60;46.21
49122;BME280;35529;44.342;25.944;2022-07-12T09:15:50;100896.41;;;25.79;47.17
49122;BME280;35529;44.342;25.944;2022-07-12T09:18:19;100894.06;;;25.96;47.69
49122;BME280;35529;44.342;25.944;2022-07-12T09:20:53;100899.50;;;26.20;54.98
49122;BME280;35529;44.342;25.944;2022-07-12T09:23:22;100896.63;;;26.31;50.46
49122;BME280;35529;44.342;25.944;2022-07-12T09:25:48;100887.31;;;26.37;48.83
49122;BME280;35529;44.342;25.944;2022-07-12T09:28:20;100894.31;;;26.43;51.04
49122;BME280;35529;44.342;25.944;2022-07-12T09:30:52;100897.31;;;26.41;50.48
49122;BME280;35529;44.342;25.944;2022-07-12T09:33:21;100900.56;;;26.43;51.45
49122;BME280;35529;44.342;25.944;2022-07-12T09:36:05;100891.59;;;26.43;43.26
49122;BME280;35529;44.342;25.944;2022-07-12T09:38:36;100889.00;;;26.52;48.64
49122;BME280;35529;44.342;25.944;2022-07-12T09:41:06;100887.16;;;26.66;52.58
49122;BME280;35529;44.342;25.944;2022-07-12T09:43:34;100884.22;;;26.82;49.61
49122;BME280;35529;44.342;25.944;2022-07-12T09:46:00;100883.63;;;27.04;47.73
49122;BME280;35529;44.342;25.944;2022-07-12T09:48:27;100881.53;;;27.15;42.35
49122;BME280;35529;44.342;25.944;2022-07-12T09:50:55;100883.47;;;27.28;44.45
49122;BME280;35529;44.342;25.944;2022-07-12T09:53:22;100885.09;;;27.29;42.61
49122;BME280;35529;44.342;25.944;2022-07-12T09:55:50;100887.06;;;27.42;42.64
49122;BME280;35529;44.342;25.944;2022-07-12T09:58:26;100880.66;;;27.33;48.36
49122;BME280;35529;44.342;25.944;2022-07-12T10:00:54;100877.31;;;27.36;55.20
49122;BME280;35529;44.342;25.944;2022-07-12T10:03:21;100881.28;;;27.30;52.60
49122;BME280;35529;44.342;25.944;2022-07-12T10:05:52;100876.59;;;27.17;48.96
49122;BME280;35529;44.342;25.944;2022-07-12T10:08:21;100872.06;;;26.93;41.24
49122;BME280;35529;44.342;25.944;2022-07-12T10:10:48;100875.19;;;26.67;56.14
49122;BME280;35529;44.342;25.944;2022-07-12T10:13:15;100871.63;;;26.48;54.44
49122;BME280;35529;44.342;25.944;2022-07-12T10:15:42;100870.09;;;26.60;56.10
49122;BME280;35529;44.342;25.944;2022-07-12T10:18:19;100872.59;;;26.76;51.14
49122;BME280;35529;44.342;25.944;2022-07-12T10:20:49;100860.38;;;26.73;48.03
49122;BME280;35529;44.342;25.944;2022-07-12T10:23:30;100859.16;;;26.99;43.52
49122;BME280;35529;44.342;25.944;2022-07-12T10:26:00;100852.00;;;27.03;45.94
49122;BME280;35529;44.342;25.944;2022-07-12T10:31:12;100851.03;;;26.80;36.60
49122;BME280;35529;44.342;25.944;2022-07-12T10:33:38;100846.41;;;26.42;35.74
49122;BME280;35529;44.342;25.944;2022-07-12T10:36:05;100847.78;;;26.39;42.78
49122;BME280;35529;44.342;25.944;2022-07-12T10:38:32;100844.75;;;26.60;33.90
49122;BME280;35529;44.342;25.944;2022-07-12T10:41:18;100841.75;;;26.81;45.75
49122;BME280;35529;44.342;25.944;2022-07-12T10:43:44;100846.88;;;27.01;47.52
49122;BME280;35529;44.342;25.944;2022-07-12T10:46:29;100836.41;;;27.22;39.39
49122;BME280;35529;44.342;25.944;2022-07-12T10:51:40;100835.16;;;27.62;51.55
49122;BME280;35529;44.342;25.944;2022-07-12T10:54:40;100845.69;;;27.54;38.24
49122;BME280;35529;44.342;25.944;2022-07-12T10:56:58;100834.75;;;27.40;39.91
49122;BME280;35529;44.342;25.944;2022-07-12T10:59:25;100833.84;;;27.59;46.77
49122;BME280;35529;44.342;25.944;2022-07-12T11:01:52;100844.25;;;27.99;46.71
49122;BME280;35529;44.342;25.944;2022-07-12T11:04:20;100836.53;;;28.29;46.02
49122;BME280;35529;44.342;25.944;2022-07-12T11:06:47;100834.53;;;28.20;37.14
49122;BME280;35529;44.342;25.944;2022-07-12T11:09:17;100824.38;;;28.35;44.28
49122;BME280;35529;44.342;25.944;2022-07-12T11:11:47;100836.28;;;28.75;41.18
49122;BME280;35529;44.342;25.944;2022-07-12T11:14:26;100842.59;;;29.07;45.12
49122;BME280;35529;44.342;25.944;2022-07-12T11:16:53;100838.13;;;28.66;34.53
49122;BME280;35529;44.342;25.944;2022-07-12T11:19:23;100839.69;;;27.94;29.99
49122;BME280;35529;44.342;25.944;2022-07-12T11:21:50;100835.28;;;27.70;31.14
49122;BME280;35529;44.342;25.944;2022-07-12T11:24:21;100832.22;;;27.86;43.29
49122;BME280;35529;44.342;25.944;2022-07-12T11:26:48;100836.25;;;28.02;43.98
49122;BME280;35529;44.342;25.944;2022-07-12T11:29:14;100828.44;;;28.23;39.93
49122;BME280;35529;44.342;25.944;2022-07-12T11:31:40;100827.13;;;28.21;43.98
49122;BME280;35529;44.342;25.944;2022-07-12T11:34:06;100831.84;;;27.79;50.78
49122;BME280;35529;44.342;25.944;2022-07-12T11:36:33;100830.56;;;27.29;35.72
49122;BME280;35529;44.342;25.944;2022-07-12T11:38:59;100825.34;;;26.86;33.90
49122;BME280;35529;44.342;25.944;2022-07-12T11:41:26;100839.84;;;26.62;54.99
49122;BME280;35529;44.342;25.944;2022-07-12T11:43:52;100834.47;;;26.38;37.77
49122;BME280;35529;44.342;25.944;2022-07-12T11:46:18;100830.94;;;26.18;37.26
49122;BME280;35529;44.342;25.944;2022-07-12T11:48:44;100823.69;;;25.89;33.27
49122;BME280;35529;44.342;25.944;2022-07-12T11:51:11;100815.50;;;25.89;38.82
49122;BME280;35529;44.342;25.944;2022-07-12T11:53:38;100815.19;;;26.15;36.41
49122;BME280;35529;44.342;25.944;2022-07-12T11:56:07;100822.75;;;26.37;43.63
49122;BME280;35529;44.342;25.944;2022-07-12T11:58:35;100813.34;;;26.49;41.60
49122;BME280;35529;44.342;25.944;2022-07-12T12:01:05;100815.03;;;26.64;37.25
49122;BME280;35529;44.342;25.944;2022-07-12T12:03:43;100813.84;;;26.89;40.73
49122;BME280;35529;44.342;25.944;2022-07-12T12:06:15;100807.94;;;27.29;48.67
49122;BME280;35529;44.342;25.944;2022-07-12T12:08:42;100807.47;;;27.40;33.25
49122;BME280;35529;44.342;25.944;2022-07-12T12:11:08;100814.47;;;27.47;37.49
49122;BME280;35529;44.342;25.944;2022-07-12T12:13:34;100801.91;;;27.73;41.50
49122;BME280;35529;44.342;25.944;2022-07-12T12:16:02;100803.06;;;28.23;49.85
49122;BME280;35529;44.342;25.944;2022-07-12T12:18:31;100786.88;;;28.49;34.92
49122;BME280;35529;44.342;25.944;2022-07-12T12:20:59;100800.28;;;28.73;36.90
49122;BME280;35529;44.342;25.944;2022-07-12T12:23:27;100804.72;;;28.47;41.63
49122;BME280;35529;44.342;25.944;2022-07-12T12:26:07;100795.72;;;28.09;34.80
49122;BME280;35529;44.342;25.944;2022-07-12T12:28:40;100791.00;;;28.01;36.25
49122;BME280;35529;44.342;25.944;2022-07-12T12:31:08;100798.19;;;27.69;43.21
49122;BME280;35529;44.342;25.944;2022-07-12T12:33:36;100797.97;;;27.38;37.14
49122;BME280;35529;44.342;25.944;2022-07-12T12:38:40;100797.91;;;26.96;40.28
49122;BME280;35529;44.342;25.944;2022-07-12T12:41:08;100791.94;;;26.94;36.66
49122;BME280;35529;44.342;25.944;2022-07-12T12:43:35;100786.84;;;27.34;43.79
49122;BME280;35529;44.342;25.944;2022-07-12T12:46:01;100786.47;;;27.55;29.87
49122;BME280;35529;44.342;25.944;2022-07-12T12:48:34;100783.50;;;27.79;29.44
49122;BME280;35529;44.342;25.944;2022-07-12T12:51:06;100783.53;;;28.30;37.72
49122;BME280;35529;44.342;25.944;2022-07-12T12:53:35;100775.97;;;28.72;38.94
49122;BME280;35529;44.342;25.944;2022-07-12T12:56:05;100779.97;;;28.97;32.03